sensor_id;sensor_type;location;lat;lon;timestamp;P1;durP1;ratioP1;P2;durP2;ratioP2
81382;SDS011;70834;37.534;-122.308;2023-06-22T00:01:29;13.65;;;3.20;;
81382;SDS011;70834;37.534;-122.308;2023-06-22T00:03:52;7.28;;;2.35;;
81382;SDS011;70834;37.534;-122.308;2023-06-22T00:06:14;10.55;;;2.30;;
81382;SDS011;70834;37.534;-122.308;2023-06-22T00:08:35;8.48;;;2.25;;
81382;SDS011;70834;37.534;-122.308;2023-06-22T00:10:58;9.75;;;2.30;;
81382;SDS011;70834;37.534;-122.308;2023-06-22T00:13:20;11.13;;;2.55;;
81382;SDS011;70834;37.534;-122.308;2023-06-22T00:15:41;8.45;;;2.42;;
81382;SDS011;70834;37.534;-122.308;2023-06-22T00:18:03;7.95;;;2.10;;
81382;SDS011;70834;37.534;-122.308;2023-06-22T00:20:26;11.98;;;2.40;;
81382;SDS011;70834;37.534;-122.308;2023-06-22T00:22:50;9.50;;;2.95;;
81382;SDS011;70834;37.534;-122.308;2023-06-22T00:25:32;10.40;;;3.05;;
81382;SDS011;70834;37.534;-122.308;2023-06-22T00:27:53;7.13;;;2.58;;
81382;SDS011;70834;37.534;-122.308;2023-06-22T00:30:15;7.85;;;2.78;;
81382;SDS011;70834;37.534;-122.308;2023-06-22T00:32:38;8.75;;;2.92;;
81382;SDS011;70834;37.534;-122.308;2023-06-22T00:34:59;7.13;;;1.95;;
81382;SDS011;70834;37.534;-122.308;2023-06-22T00:37:21;13.07;;;2.65;;
81382;SDS011;70834;37.534;-122.308;2023-06-22T00:39:45;9.40;;;2.85;;
81382;SDS011;70834;37.534;-122.308;2023-06-22T00:42:07;9.05;;;2.78;;
81382;SDS011;70834;37.534;-122.308;2023-06-22T00:44:28;7.13;;;2.03;;
81382;SDS011;70834;37.534;-122.308;2023-06-22T00:46:50;9.55;;;2.17;;
81382;SDS011;70834;37.534;-122.308;2023-06-22T00:49:13;11.02;;;3.22;;
81382;SDS011;70834;37.534;-122.308;2023-06-22T00:51:34;7.03;;;2.90;;
81382;SDS011;70834;37.534;-122.308;2023-06-22T00:53:58;8.77;;;2.00;;
81382;SDS011;70834;37.534;-122.308;2023-06-22T00:56:20;9.18;;;2.53;;
81382;SDS011;70834;37.534;-122.308;2023-06-22T00:58:45;12.55;;;3.03;;
81382;SDS011;70834;37.534;-122.308;2023-06-22T01:01:07;10.25;;;2.60;;
81382;SDS011;70834;37.534;-122.308;2023-06-22T01:03:29;7.75;;;3.03;;
81382;SDS011;70834;37.534;-122.308;2023-06-22T01:05:50;9.35;;;3.33;;
81382;SDS011;70834;37.534;-122.308;2023-06-22T01:08:29;8.82;;;2.63;;
81382;SDS011;70834;37.534;-122.308;2023-06-22T01:14:00;8.82;;;2.78;;
81382;SDS011;70834;37.534;-122.308;2023-06-22T01:16:30;8.27;;;2.28;;
81382;SDS011;70834;37.534;-122.308;2023-06-22T01:18:55;9.27;;;2.80;;
81382;SDS011;70834;37.534;-122.308;2023-06-22T01:21:23;8.90;;;2.83;;
81382;SDS011;70834;37.534;-122.308;2023-06-22T01:24:02;8.05;;;2.25;;
81382;SDS011;70834;37.534;-122.308;2023-06-22T01:26:42;8.50;;;2.97;;
81382;SDS011;70834;37.534;-122.308;2023-06-22T01:29:04;9.45;;;2.05;;
81382;SDS011;70834;37.534;-122.308;2023-06-22T01:31:28;13.27;;;2.85;;
81382;SDS011;70834;37.534;-122.308;2023-06-22T01:34:00;9.10;;;2.05;;
81382;SDS011;70834;37.534;-122.308;2023-06-22T01:36:24;12.13;;;2.88;;
81382;SDS011;70834;37.534;-122.308;2023-06-22T01:38:47;7.32;;;2.30;;
81382;SDS011;70834;37.534;-122.308;2023-06-22T01:41:10;8.75;;;1.83;;
81382;SDS011;70834;37.534;-122.308;2023-06-22T01:43:32;9.23;;;2.55;;
81382;SDS011;70834;37.534;-122.308;2023-06-22T01:45:55;9.95;;;2.40;;
81382;SDS011;70834;37.534;-122.308;2023-06-22T01:48:17;12.20;;;3.00;;
81382;SDS011;70834;37.534;-122.308;2023-06-22T01:50:41;8.68;;;2.90;;
81382;SDS011;70834;37.534;-122.308;2023-06-22T01:53:05;9.48;;;2.72;;
81382;SDS011;70834;37.534;-122.308;2023-06-22T01:55:28;13.50;;;3.13;;
81382;SDS011;70834;37.534;-122.308;2023-06-22T01:57:50;7.93;;;2.55;;
81382;SDS011;70834;37.534;-122.308;2023-06-22T02:00:18;9.07;;;2.95;;
81382;SDS011;70834;37.534;-122.308;2023-06-22T02:02:46;9.35;;;2.47;;
81382;SDS011;70834;37.534;-122.308;2023-06-22T02:05:29;8.18;;;2.42;;
81382;SDS011;70834;37.534;-122.308;2023-06-22T02:08:11;10.70;;;3.28;;
81382;SDS011;70834;37.534;-122.308;2023-06-22T02:10:38;12.80;;;3.28;;
81382;SDS011;70834;37.534;-122.308;2023-06-22T02:13:02;9.48;;;3.00;;
81382;SDS011;70834;37.534;-122.308;2023-06-22T02:15:26;10.23;;;2.38;;
81382;SDS011;70834;37.534;-122.308;2023-06-22T02:17:48;12.20;;;3.13;;
81382;SDS011;70834;37.534;-122.308;2023-06-22T02:20:12;8.73;;;2.78;;
81382;SDS011;70834;37.534;-122.308;2023-06-22T02:22:36;13.50;;;3.15;;
81382;SDS011;70834;37.534;-122.308;2023-06-22T02:24:58;7.72;;;2.70;;
81382;SDS011;70834;37.534;-122.308;2023-06-22T02:27:20;8.95;;;3.10;;
81382;SDS011;70834;37.534;-122.308;2023-06-22T02:29:41;12.55;;;2.95;;
81382;SDS011;70834;37.534;-122.308;2023-06-22T02:32:03;11.68;;;3.70;;
81382;SDS011;70834;37.534;-122.308;2023-06-22T02:34:24;20.13;;;3.33;;
81382;SDS011;70834;37.534;-122.308;2023-06-22T02:36:46;10.10;;;3.40;;
81382;SDS011;70834;37.534;-122.308;2023-06-22T02:39:12;11.20;;;2.15;;
81382;SDS011;70834;37.534;-122.308;2023-06-22T02:41:33;13.65;;;2.67;;
81382;SDS011;70834;37.534;-122.308;2023-06-22T02:43:56;12.85;;;3.33;;
81382;SDS011;70834;37.534;-122.308;2023-06-22T02:46:17;10.73;;;3.75;;
81382;SDS011;70834;37.534;-122.308;2023-06-22T02:48:39;8.63;;;2.40;;
81382;SDS011;70834;37.534;-122.308;2023-06-22T02:51:01;10.23;;;4.18;;
81382;SDS011;70834;37.534;-122.308;2023-06-22T02:53:24;7.38;;;2.85;;
81382;SDS011;70834;37.534;-122.308;2023-06-22T02:55:46;11.32;;;3.88;;
81382;SDS011;70834;37.534;-122.308;2023-06-22T02:58:07;10.05;;;3.40;;
81382;SDS011;70834;37.534;-122.308;2023-06-22T03:00:30;14.05;;;3.03;;
81382;SDS011;70834;37.534;-122.308;2023-06-22T03:02:52;13.95;;;3.55;;
81382;SDS011;70834;37.534;-122.308;2023-06-22T03:05:14;11.82;;;2.95;;
81382;SDS011;70834;37.534;-122.308;2023-06-22T03:07:38;9.50;;;3.83;;
81382;SDS011;70834;37.534;-122.308;2023-06-22T03:10:03;10.27;;;3.80;;
81382;SDS011;70834;37.534;-122.308;2023-06-22T03:12:25;14.48;;;3.50;;
81382;SDS011;70834;37.534;-122.308;2023-06-22T03:14:46;11.68;;;4.03;;
81382;SDS011;70834;37.534;-122.308;2023-06-22T03:17:09;8.85;;;2.92;;
81382;SDS011;70834;37.534;-122.308;2023-06-22T03:19:31;13.43;;;3.00;;
81382;SDS011;70834;37.534;-122.308;2023-06-22T03:21:55;11.10;;;3.47;;
81382;SDS011;70834;37.534;-122.308;2023-06-22T03:24:16;9.68;;;2.92;;
81382;SDS011;70834;37.534;-122.308;2023-06-22T03:26:38;15.82;;;4.28;;
81382;SDS011;70834;37.534;-122.308;2023-06-22T03:28:59;18.10;;;4.03;;
81382;SDS011;70834;37.534;-122.308;2023-06-22T03:31:21;14.05;;;3.72;;
81382;SDS011;70834;37.534;-122.308;2023-06-22T03:33:43;13.07;;;3.28;;
81382;SDS011;70834;37.534;-122.308;2023-06-22T03:36:04;9.85;;;3.75;;
81382;SDS011;70834;37.534;-122.308;2023-06-22T03:38:26;10.18;;;3.30;;
81382;SDS011;70834;37.534;-122.308;2023-06-22T03:40:49;11.90;;;3.40;;
81382;SDS011;70834;37.534;-122.308;2023-06-22T03:43:10;9.55;;;3.60;;
81382;SDS011;70834;37.534;-122.308;2023-06-22T03:45:32;12.55;;;3.17;;
81382;SDS011;70834;37.534;-122.308;2023-06-22T03:47:53;12.60;;;4.50;;
81382;SDS011;70834;37.534;-122.308;2023-06-22T03:50:15;11.52;;;3.47;;
81382;SDS011;70834;37.534;-122.308;2023-06-22T03:52:36;8.20;;;2.95;;
81382;SDS011;70834;37.534;-122.308;2023-06-22T03:54:58;13.05;;;4.35;;
81382;SDS011;70834;37.534;-122.308;2023-06-22T03:57:19;11.55;;;3.63;;
81382;SDS011;70834;37.534;-122.308;2023-06-22T03:59:41;12.82;;;4.78;;
81382;SDS011;70834;37.534;-122.308;2023-06-22T04:02:02;11.27;;;3.28;;
81382;SDS011;70834;37.534;-122.308;2023-06-22T04:04:24;19.38;;;4.22;;
81382;SDS011;70834;37.534;-122.308;2023-06-22T04:06:45;12.30;;;3.55;;
81382;SDS011;70834;37.534;-122.308;2023-06-22T04:09:07;13.10;;;3.88;;
81382;SDS011;70834;37.534;-122.308;2023-06-22T04:11:28;8.70;;;3.80;;
81382;SDS011;70834;37.534;-122.308;2023-06-22T04:13:50;10.95;;;3.70;;
81382;SDS011;70834;37.534;-122.308;2023-06-22T04:16:11;10.88;;;3.88;;
81382;SDS011;70834;37.534;-122.308;2023-06-22T04:18:33;13.02;;;3.67;;
81382;SDS011;70834;37.534;-122.308;2023-06-22T04:20:54;9.65;;;4.03;;
81382;SDS011;70834;37.534;-122.308;2023-06-22T04:23:15;13.68;;;3.75;;
81382;SDS011;70834;37.534;-122.308;2023-06-22T04:25:37;9.07;;;4.07;;
81382;SDS011;70834;37.534;-122.308;2023-06-22T04:27:59;14.18;;;4.93;;
81382;SDS011;70834;37.534;-122.308;2023-06-22T04:30:23;11.98;;;4.15;;
81382;SDS011;70834;37.534;-122.308;2023-06-22T04:32:45;20.45;;;3.50;;
81382;SDS011;70834;37.534;-122.308;2023-06-22T04:35:16;10.07;;;4.10;;
81382;SDS011;70834;37.534;-122.308;2023-06-22T04:37:38;12.27;;;3.63;;
81382;SDS011;70834;37.534;-122.308;2023-06-22T04:39:59;10.85;;;3.67;;
81382;SDS011;70834;37.534;-122.308;2023-06-22T04:42:21;15.68;;;4.40;;
81382;SDS011;70834;37.534;-122.308;2023-06-22T04:44:42;14.48;;;4.10;;
81382;SDS011;70834;37.534;-122.308;2023-06-22T04:47:04;14.18;;;4.75;;
81382;SDS011;70834;37.534;-122.308;2023-06-22T04:49:27;16.40;;;4.55;;
81382;SDS011;70834;37.534;-122.308;2023-06-22T04:51:56;17.92;;;5.43;;
81382;SDS011;70834;37.534;-122.308;2023-06-22T04:54:17;10.15;;;4.63;;
81382;SDS011;70834;37.534;-122.308;2023-06-22T04:56:39;14.40;;;4.03;;
81382;SDS011;70834;37.534;-122.308;2023-06-22T04:59:01;15.68;;;4.32;;
81382;SDS011;70834;37.534;-122.308;2023-06-22T05:01:26;13.27;;;3.97;;
81382;SDS011;70834;37.534;-122.308;2023-06-22T05:03:47;11.85;;;3.67;;
81382;SDS011;70834;37.534;-122.308;2023-06-22T05:06:09;19.05;;;3.90;;
81382;SDS011;70834;37.534;-122.308;2023-06-22T05:08:30;10.52;;;4.13;;
81382;SDS011;70834;37.534;-122.308;2023-06-22T05:10:52;14.02;;;4.78;;
81382;SDS011;70834;37.534;-122.308;2023-06-22T05:13:13;13.38;;;4.55;;
81382;SDS011;70834;37.534;-122.308;2023-06-22T05:15:35;12.98;;;3.55;;
81382;SDS011;70834;37.534;-122.308;2023-06-22T05:18:00;11.05;;;4.30;;
81382;SDS011;70834;37.534;-122.308;2023-06-22T05:20:25;19.23;;;4.07;;
81382;SDS011;70834;37.534;-122.308;2023-06-22T05:22:47;15.43;;;4.10;;
81382;SDS011;70834;37.534;-122.308;2023-06-22T05:25:08;16.08;;;4.28;;
81382;SDS011;70834;37.534;-122.308;2023-06-22T05:27:33;13.80;;;4.13;;
81382;SDS011;70834;37.534;-122.308;2023-06-22T05:29:59;12.00;;;3.80;;
81382;SDS011;70834;37.534;-122.308;2023-06-22T05:32:21;18.13;;;4.85;;
81382;SDS011;70834;37.534;-122.308;2023-06-22T05:34:42;11.35;;;4.40;;
81382;SDS011;70834;37.534;-122.308;2023-06-22T05:37:04;17.25;;;4.70;;
81382;SDS011;70834;37.534;-122.308;2023-06-22T05:39:26;18.98;;;5.78;;
81382;SDS011;70834;37.534;-122.308;2023-06-22T05:41:47;11.88;;;3.78;;
81382;SDS011;70834;37.534;-122.308;2023-06-22T05:44:09;13.93;;;4.70;;
81382;SDS011;70834;37.534;-122.308;2023-06-22T05:46:30;13.63;;;4.43;;
81382;SDS011;70834;37.534;-122.308;2023-06-22T05:48:52;13.40;;;5.95;;
81382;SDS011;70834;37.534;-122.308;2023-06-22T05:51:13;13.88;;;4.57;;
81382;SDS011;70834;37.534;-122.308;2023-06-22T05:53:35;18.98;;;4.63;;
81382;SDS011;70834;37.534;-122.308;2023-06-22T05:55:56;13.82;;;4.70;;
81382;SDS011;70834;37.534;-122.308;2023-06-22T05:58:18;19.02;;;4.32;;
81382;SDS011;70834;37.534;-122.308;2023-06-22T06:00:39;13.50;;;4.13;;
81382;SDS011;70834;37.534;-122.308;2023-06-22T06:03:02;11.82;;;4.40;;
81382;SDS011;70834;37.534;-122.308;2023-06-22T06:05:23;15.25;;;4.78;;
81382;SDS011;70834;37.534;-122.308;2023-06-22T06:07:45;21.42;;;4.60;;
81382;SDS011;70834;37.534;-122.308;2023-06-22T06:10:07;13.50;;;4.05;;
81382;SDS011;70834;37.534;-122.308;2023-06-22T06:12:29;16.38;;;4.63;;
81382;SDS011;70834;37.534;-122.308;2023-06-22T06:14:51;14.70;;;4.75;;
81382;SDS011;70834;37.534;-122.308;2023-06-22T06:17:13;17.83;;;4.68;;
81382;SDS011;70834;37.534;-122.308;2023-06-22T06:19:35;15.35;;;4.72;;
81382;SDS011;70834;37.534;-122.308;2023-06-22T06:21:56;10.38;;;4.45;;
81382;SDS011;70834;37.534;-122.308;2023-06-22T06:24:18;10.60;;;4.20;;
81382;SDS011;70834;37.534;-122.308;2023-06-22T06:26:39;9.82;;;4.38;;
81382;SDS011;70834;37.534;-122.308;2023-06-22T06:29:01;13.20;;;4.07;;
81382;SDS011;70834;37.534;-122.308;2023-06-22T06:31:25;12.95;;;4.30;;
81382;SDS011;70834;37.534;-122.308;2023-06-22T06:33:50;13.95;;;4.88;;
81382;SDS011;70834;37.534;-122.308;2023-06-22T06:36:12;13.27;;;4.78;;
81382;SDS011;70834;37.534;-122.308;2023-06-22T06:38:33;12.55;;;4.78;;
81382;SDS011;70834;37.534;-122.308;2023-06-22T06:40:54;12.77;;;4.90;;
81382;SDS011;70834;37.534;-122.308;2023-06-22T06:43:16;17.25;;;4.53;;
81382;SDS011;70834;37.534;-122.308;2023-06-22T06:45:38;15.05;;;5.30;;
81382;SDS011;70834;37.534;-122.308;2023-06-22T06:47:59;19.73;;;5.05;;
81382;SDS011;70834;37.534;-122.308;2023-06-22T06:50:21;18.15;;;5.07;;
81382;SDS011;70834;37.534;-122.308;2023-06-22T06:52:42;16.33;;;5.18;;
81382;SDS011;70834;37.534;-122.308;2023-06-22T06:55:04;13.23;;;4.57;;
81382;SDS011;70834;37.534;-122.308;2023-06-22T06:57:29;14.77;;;5.35;;
81382;SDS011;70834;37.534;-122.308;2023-06-22T06:59:50;18.75;;;5.00;;
81382;SDS011;70834;37.534;-122.308;2023-06-22T07:02:12;18.15;;;5.28;;
81382;SDS011;70834;37.534;-122.308;2023-06-22T07:04:35;12.00;;;5.88;;
81382;SDS011;70834;37.534;-122.308;2023-06-22T07:06:56;11.23;;;5.07;;
81382;SDS011;70834;37.534;-122.308;2023-06-22T07:09:19;18.80;;;5.57;;
81382;SDS011;70834;37.534;-122.308;2023-06-22T07:11:40;19.50;;;4.90;;
81382;SDS011;70834;37.534;-122.308;2023-06-22T07:14:02;16.00;;;5.80;;
81382;SDS011;70834;37.534;-122.308;2023-06-22T07:16:23;15.27;;;5.15;;
81382;SDS011;70834;37.534;-122.308;2023-06-22T07:18:46;17.90;;;5.80;;
81382;SDS011;70834;37.534;-122.308;2023-06-22T07:21:08;20.50;;;5.20;;
81382;SDS011;70834;37.534;-122.308;2023-06-22T07:23:29;17.65;;;6.22;;
81382;SDS011;70834;37.534;-122.308;2023-06-22T07:25:51;23.27;;;7.15;;
81382;SDS011;70834;37.534;-122.308;2023-06-22T07:28:12;25.08;;;6.60;;
81382;SDS011;70834;37.534;-122.308;2023-06-22T07:30:34;17.55;;;5.25;;
81382;SDS011;70834;37.534;-122.308;2023-06-22T07:32:56;17.02;;;5.35;;
81382;SDS011;70834;37.534;-122.308;2023-06-22T07:35:18;17.02;;;5.82;;
81382;SDS011;70834;37.534;-122.308;2023-06-22T07:37:40;20.42;;;5.07;;
81382;SDS011;70834;37.534;-122.308;2023-06-22T07:40:01;15.90;;;5.55;;
81382;SDS011;70834;37.534;-122.308;2023-06-22T07:42:26;14.70;;;4.95;;
81382;SDS011;70834;37.534;-122.308;2023-06-22T07:44:50;18.38;;;5.13;;
81382;SDS011;70834;37.534;-122.308;2023-06-22T07:47:12;16.10;;;4.93;;
81382;SDS011;70834;37.534;-122.308;2023-06-22T07:49:33;20.70;;;5.65;;
81382;SDS011;70834;37.534;-122.308;2023-06-22T07:51:55;20.48;;;5.07;;
81382;SDS011;70834;37.534;-122.308;2023-06-22T07:54:16;23.23;;;6.35;;
81382;SDS011;70834;37.534;-122.308;2023-06-22T07:56:38;19.73;;;6.10;;
81382;SDS011;70834;37.534;-122.308;2023-06-22T07:58:59;24.33;;;5.75;;
81382;SDS011;70834;37.534;-122.308;2023-06-22T08:01:22;23.95;;;6.68;;
81382;SDS011;70834;37.534;-122.308;2023-06-22T08:03:43;17.60;;;5.85;;
81382;SDS011;70834;37.534;-122.308;2023-06-22T08:06:05;20.15;;;5.38;;
81382;SDS011;70834;37.534;-122.308;2023-06-22T08:08:29;20.33;;;6.03;;
81382;SDS011;70834;37.534;-122.308;2023-06-22T08:10:50;16.58;;;5.78;;
81382;SDS011;70834;37.534;-122.308;2023-06-22T08:13:12;15.07;;;6.10;;
81382;SDS011;70834;37.534;-122.308;2023-06-22T08:15:33;20.52;;;5.47;;
81382;SDS011;70834;37.534;-122.308;2023-06-22T08:17:54;21.65;;;6.70;;
81382;SDS011;70834;37.534;-122.308;2023-06-22T08:20:16;19.25;;;5.45;;
81382;SDS011;70834;37.534;-122.308;2023-06-22T08:22:38;17.45;;;5.15;;
81382;SDS011;70834;37.534;-122.308;2023-06-22T08:25:00;22.00;;;5.65;;
81382;SDS011;70834;37.534;-122.308;2023-06-22T08:27:21;18.35;;;5.65;;
81382;SDS011;70834;37.534;-122.308;2023-06-22T08:29:44;21.23;;;5.88;;
81382;SDS011;70834;37.534;-122.308;2023-06-22T08:32:08;24.13;;;5.10;;
81382;SDS011;70834;37.534;-122.308;2023-06-22T08:34:30;22.20;;;6.40;;
81382;SDS011;70834;37.534;-122.308;2023-06-22T08:36:51;20.70;;;5.25;;
81382;SDS011;70834;37.534;-122.308;2023-06-22T08:39:13;15.82;;;5.60;;
81382;SDS011;70834;37.534;-122.308;2023-06-22T08:41:34;14.35;;;5.60;;
81382;SDS011;70834;37.534;-122.308;2023-06-22T08:43:56;15.02;;;5.22;;
81382;SDS011;70834;37.534;-122.308;2023-06-22T08:46:18;16.58;;;6.22;;
81382;SDS011;70834;37.534;-122.308;2023-06-22T08:48:43;21.73;;;6.45;;
81382;SDS011;70834;37.534;-122.308;2023-06-22T08:51:04;20.88;;;6.53;;
81382;SDS011;70834;37.534;-122.308;2023-06-22T08:53:26;25.33;;;7.38;;
81382;SDS011;70834;37.534;-122.308;2023-06-22T08:55:47;23.77;;;6.45;;
81382;SDS011;70834;37.534;-122.308;2023-06-22T08:58:11;23.48;;;6.50;;
81382;SDS011;70834;37.534;-122.308;2023-06-22T09:00:32;17.00;;;5.53;;
81382;SDS011;70834;37.534;-122.308;2023-06-22T09:02:55;21.75;;;6.28;;
81382;SDS011;70834;37.534;-122.308;2023-06-22T09:05:19;20.45;;;6.28;;
81382;SDS011;70834;37.534;-122.308;2023-06-22T09:07:42;19.30;;;6.28;;
81382;SDS011;70834;37.534;-122.308;2023-06-22T09:10:04;20.70;;;6.28;;
81382;SDS011;70834;37.534;-122.308;2023-06-22T09:12:26;17.65;;;7.05;;
81382;SDS011;70834;37.534;-122.308;2023-06-22T09:14:51;20.20;;;5.97;;
81382;SDS011;70834;37.534;-122.308;2023-06-22T09:17:12;21.08;;;5.43;;
81382;SDS011;70834;37.534;-122.308;2023-06-22T09:19:34;19.45;;;6.03;;
81382;SDS011;70834;37.534;-122.308;2023-06-22T09:21:55;15.18;;;5.10;;
81382;SDS011;70834;37.534;-122.308;2023-06-22T09:24:17;20.98;;;5.35;;
81382;SDS011;70834;37.534;-122.308;2023-06-22T09:26:39;19.85;;;6.15;;
81382;SDS011;70834;37.534;-122.308;2023-06-22T09:29:00;19.63;;;6.00;;
81382;SDS011;70834;37.534;-122.308;2023-06-22T09:31:21;15.45;;;5.95;;
81382;SDS011;70834;37.534;-122.308;2023-06-22T09:33:45;18.30;;;6.05;;
81382;SDS011;70834;37.534;-122.308;2023-06-22T09:36:07;20.15;;;6.13;;
81382;SDS011;70834;37.534;-122.308;2023-06-22T09:38:29;15.45;;;6.22;;
81382;SDS011;70834;37.534;-122.308;2023-06-22T09:40:50;18.90;;;6.20;;
81382;SDS011;70834;37.534;-122.308;2023-06-22T09:43:11;24.27;;;7.15;;
81382;SDS011;70834;37.534;-122.308;2023-06-22T09:45:33;17.42;;;6.15;;
81382;SDS011;70834;37.534;-122.308;2023-06-22T09:47:54;17.02;;;5.93;;
81382;SDS011;70834;37.534;-122.308;2023-06-22T09:50:16;11.70;;;5.30;;
81382;SDS011;70834;37.534;-122.308;2023-06-22T09:52:37;14.55;;;5.75;;
81382;SDS011;70834;37.534;-122.308;2023-06-22T09:54:59;22.35;;;6.80;;
81382;SDS011;70834;37.534;-122.308;2023-06-22T09:57:20;15.18;;;5.72;;
81382;SDS011;70834;37.534;-122.308;2023-06-22T09:59:41;11.93;;;4.78;;
81382;SDS011;70834;37.534;-122.308;2023-06-22T10:02:03;22.25;;;7.00;;
81382;SDS011;70834;37.534;-122.308;2023-06-22T10:04:25;20.15;;;5.22;;
81382;SDS011;70834;37.534;-122.308;2023-06-22T10:06:46;10.25;;;4.57;;
81382;SDS011;70834;37.534;-122.308;2023-06-22T10:09:08;12.35;;;4.25;;
81382;SDS011;70834;37.534;-122.308;2023-06-22T10:11:29;15.55;;;5.22;;
81382;SDS011;70834;37.534;-122.308;2023-06-22T10:13:51;16.98;;;4.93;;
81382;SDS011;70834;37.534;-122.308;2023-06-22T10:16:13;14.32;;;4.30;;
81382;SDS011;70834;37.534;-122.308;2023-06-22T10:18:34;20.30;;;4.75;;
81382;SDS011;70834;37.534;-122.308;2023-06-22T10:20:56;12.93;;;5.28;;
81382;SDS011;70834;37.534;-122.308;2023-06-22T10:23:17;16.42;;;4.75;;
81382;SDS011;70834;37.534;-122.308;2023-06-22T10:25:40;12.80;;;4.07;;
81382;SDS011;70834;37.534;-122.308;2023-06-22T10:28:01;12.95;;;4.55;;
81382;SDS011;70834;37.534;-122.308;2023-06-22T10:30:23;15.23;;;4.93;;
81382;SDS011;70834;37.534;-122.308;2023-06-22T10:32:44;13.55;;;4.40;;
81382;SDS011;70834;37.534;-122.308;2023-06-22T10:35:06;13.35;;;4.93;;
81382;SDS011;70834;37.534;-122.308;2023-06-22T10:37:27;11.15;;;3.75;;
81382;SDS011;70834;37.534;-122.308;2023-06-22T10:39:49;14.88;;;4.50;;
81382;SDS011;70834;37.534;-122.308;2023-06-22T10:42:10;9.50;;;3.78;;
81382;SDS011;70834;37.534;-122.308;2023-06-22T10:44:32;15.95;;;4.53;;
81382;SDS011;70834;37.534;-122.308;2023-06-22T10:46:54;11.38;;;4.40;;
81382;SDS011;70834;37.534;-122.308;2023-06-22T10:49:15;18.45;;;4.60;;
81382;SDS011;70834;37.534;-122.308;2023-06-22T10:51:37;16.02;;;3.67;;
81382;SDS011;70834;37.534;-122.308;2023-06-22T10:53:58;15.18;;;4.18;;
81382;SDS011;70834;37.534;-122.308;2023-06-22T10:56:20;8.35;;;3.60;;
81382;SDS011;70834;37.534;-122.308;2023-06-22T10:58:41;11.82;;;4.22;;
81382;SDS011;70834;37.534;-122.308;2023-06-22T11:01:03;11.48;;;4.25;;
81382;SDS011;70834;37.534;-122.308;2023-06-22T11:03:25;10.65;;;3.58;;
81382;SDS011;70834;37.534;-122.308;2023-06-22T11:05:46;10.20;;;4.20;;
81382;SDS011;70834;37.534;-122.308;2023-06-22T11:08:08;9.27;;;4.35;;
81382;SDS011;70834;37.534;-122.308;2023-06-22T11:10:29;11.73;;;4.18;;
81382;SDS011;70834;37.534;-122.308;2023-06-22T11:12:51;14.90;;;3.80;;
81382;SDS011;70834;37.534;-122.308;2023-06-22T11:15:13;13.55;;;4.43;;
81382;SDS011;70834;37.534;-122.308;2023-06-22T11:17:35;8.70;;;3.50;;
81382;SDS011;70834;37.534;-122.308;2023-06-22T11:19:56;14.10;;;4.43;;
81382;SDS011;70834;37.534;-122.308;2023-06-22T11:22:19;13.35;;;3.83;;
81382;SDS011;70834;37.534;-122.308;2023-06-22T11:24:40;11.75;;;4.30;;
81382;SDS011;70834;37.534;-122.308;2023-06-22T11:27:02;8.13;;;3.63;;
81382;SDS011;70834;37.534;-122.308;2023-06-22T11:29:23;12.65;;;3.35;;
81382;SDS011;70834;37.534;-122.308;2023-06-22T11:31:44;9.68;;;3.80;;
81382;SDS011;70834;37.534;-122.308;2023-06-22T11:34:06;10.38;;;3.97;;
81382;SDS011;70834;37.534;-122.308;2023-06-22T11:36:28;10.57;;;4.15;;
81382;SDS011;70834;37.534;-122.308;2023-06-22T11:38:53;10.20;;;3.03;;
81382;SDS011;70834;37.534;-122.308;2023-06-22T11:41:14;9.50;;;3.50;;
81382;SDS011;70834;37.534;-122.308;2023-06-22T11:43:36;9.40;;;3.75;;
81382;SDS011;70834;37.534;-122.308;2023-06-22T11:45:57;12.93;;;4.03;;
81382;SDS011;70834;37.534;-122.308;2023-06-22T11:48:19;10.05;;;3.25;;
81382;SDS011;70834;37.534;-122.308;2023-06-22T11:50:40;11.10;;;3.80;;
81382;SDS011;70834;37.534;-122.308;2023-06-22T11:53:02;12.23;;;3.72;;
81382;SDS011;70834;37.534;-122.308;2023-06-22T11:55:24;9.88;;;4.18;;
81382;SDS011;70834;37.534;-122.308;2023-06-22T11:57:55;7.95;;;3.22;;
81382;SDS011;70834;37.534;-122.308;2023-06-22T12:00:19;17.42;;;4.10;;
81382;SDS011;70834;37.534;-122.308;2023-06-22T12:02:44;11.02;;;3.20;;
81382;SDS011;70834;37.534;-122.308;2023-06-22T12:05:05;14.85;;;4.53;;
81382;SDS011;70834;37.534;-122.308;2023-06-22T12:07:28;12.95;;;3.22;;
81382;SDS011;70834;37.534;-122.308;2023-06-22T12:09:49;15.07;;;3.50;;
81382;SDS011;70834;37.534;-122.308;2023-06-22T12:12:11;10.65;;;3.22;;
81382;SDS011;70834;37.534;-122.308;2023-06-22T12:14:32;17.13;;;4.22;;
81382;SDS011;70834;37.534;-122.308;2023-06-22T12:16:54;10.23;;;3.30;;
81382;SDS011;70834;37.534;-122.308;2023-06-22T12:19:15;8.07;;;2.85;;
81382;SDS011;70834;37.534;-122.308;2023-06-22T12:21:37;17.77;;;4.05;;
81382;SDS011;70834;37.534;-122.308;2023-06-22T12:23:59;9.77;;;3.53;;
81382;SDS011;70834;37.534;-122.308;2023-06-22T12:26:21;10.45;;;3.85;;
81382;SDS011;70834;37.534;-122.308;2023-06-22T12:28:42;8.20;;;2.90;;
81382;SDS011;70834;37.534;-122.308;2023-06-22T12:31:03;16.40;;;4.88;;
81382;SDS011;70834;37.534;-122.308;2023-06-22T12:33:25;7.88;;;3.42;;
81382;SDS011;70834;37.534;-122.308;2023-06-22T12:35:46;11.80;;;3.58;;
81382;SDS011;70834;37.534;-122.308;2023-06-22T12:38:09;9.30;;;3.42;;
81382;SDS011;70834;37.534;-122.308;2023-06-22T12:40:30;12.30;;;3.70;;
81382;SDS011;70834;37.534;-122.308;2023-06-22T12:42:53;13.13;;;3.78;;
81382;SDS011;70834;37.534;-122.308;2023-06-22T12:45:15;9.55;;;3.20;;
81382;SDS011;70834;37.534;-122.308;2023-06-22T12:47:36;12.27;;;3.50;;
81382;SDS011;70834;37.534;-122.308;2023-06-22T12:49:58;10.57;;;3.40;;
81382;SDS011;70834;37.534;-122.308;2023-06-22T12:52:19;16.23;;;4.22;;
81382;SDS011;70834;37.534;-122.308;2023-06-22T12:54:40;9.48;;;2.90;;
81382;SDS011;70834;37.534;-122.308;2023-06-22T12:57:02;10.07;;;3.10;;
81382;SDS011;70834;37.534;-122.308;2023-06-22T12:59:24;14.13;;;4.60;;
81382;SDS011;70834;37.534;-122.308;2023-06-22T13:01:45;17.77;;;4.38;;
81382;SDS011;70834;37.534;-122.308;2023-06-22T13:04:06;9.57;;;3.15;;
81382;SDS011;70834;37.534;-122.308;2023-06-22T13:06:28;10.52;;;3.15;;
81382;SDS011;70834;37.534;-122.308;2023-06-22T13:08:50;11.50;;;4.50;;
81382;SDS011;70834;37.534;-122.308;2023-06-22T13:13:51;9.48;;;2.60;;
81382;SDS011;70834;37.534;-122.308;2023-06-22T13:16:12;13.68;;;3.20;;
81382;SDS011;70834;37.534;-122.308;2023-06-22T13:18:34;9.85;;;3.42;;
81382;SDS011;70834;37.534;-122.308;2023-06-22T13:20:56;12.75;;;3.22;;
81382;SDS011;70834;37.534;-122.308;2023-06-22T13:23:18;10.85;;;3.08;;
81382;SDS011;70834;37.534;-122.308;2023-06-22T13:25:39;8.45;;;3.22;;
81382;SDS011;70834;37.534;-122.308;2023-06-22T13:28:01;10.82;;;4.03;;
81382;SDS011;70834;37.534;-122.308;2023-06-22T13:30:22;9.65;;;3.67;;
81382;SDS011;70834;37.534;-122.308;2023-06-22T13:32:44;14.35;;;3.13;;
81382;SDS011;70834;37.534;-122.308;2023-06-22T13:35:05;10.73;;;3.67;;
81382;SDS011;70834;37.534;-122.308;2023-06-22T13:37:27;11.27;;;3.13;;